Time;durP1;ratioP1;P1;durP2;ratioP2;P2;SDS_P1;SDS_P2;PMS_P1;PMS_P2;Temp;Humidity;BMP_temperature;BMP_pressure;BME280_temperature;BME280_humidity;BME280_pressure;Samples;Min_cycle;Max_cycle;Signal;HPM_P1;HPM_P2
2023/11/12 00:04:18;;;;;;;4.35;3.78;;;;;;;7.67;83.60;99329.38;10203882;28;20058;-67
2023/11/12 00:09:19;;;;;;;6.32;4.10;;;;;;;7.66;83.57;99318.91;10200050;28;20138;-66
2023/11/12 00:14:20;;;;;;;5.72;3.58;;;;;;;7.58;83.35;99317.72;10208482;28;20666;-66
2023/11/12 00:19:22;;;;;;;5.35;3.75;;;;;;;7.62;83.85;99328.91;10201216;28;20055;-67
2023/11/12 00:24:24;;;;;;;5.70;3.28;;;;;;;7.59;83.83;99329.97;10206458;28;20047;-66
2023/11/12 00:29:25;;;;;;;6.60;4.30;;;;;;;7.49;84.19;99328.22;10207374;28;20149;-66
2023/11/12 00:34:27;;;;;;;5.28;4.20;;;;;;;7.43;84.67;99319.84;10199566;28;20051;-67
2023/11/12 00:39:28;;;;;;;4.38;3.42;;;;;;;7.52;84.47;99314.72;10201536;28;20169;-66
2023/11/12 00:44:30;;;;;;;4.70;3.80;;;;;;;7.47;84.20;99306.34;10203506;28;20107;-67
2023/11/12 00:49:31;;;;;;;5.22;3.67;;;;;;;7.55;84.17;99306.53;10198693;28;20055;-67
2023/11/12 00:54:33;;;;;;;6.75;4.45;;;;;;;7.54;84.17;99310.16;10199246;28;20055;-67
2023/11/12 00:59:35;;;;;;;5.88;4.22;;;;;;;7.47;84.68;99309.00;10200228;28;20052;-67
2023/11/12 01:04:37;;;;;;;6.82;4.55;;;;;;;7.44;84.80;99316.19;10197317;28;20059;-67
2023/11/12 01:09:38;;;;;;;5.05;4.55;;;;;;;7.37;85.16;99303.59;10195521;28;20770;-67
2023/11/12 01:14:42;;;;;;;5.30;4.80;;;;;;;7.34;85.22;99296.78;10205052;28;20142;-67
2023/11/12 01:19:44;;;;;;;4.97;4.45;;;;;;;7.43;85.32;99303.94;10206998;28;20146;-67
2023/11/12 01:24:46;;;;;;;7.57;4.90;;;;;;;7.36;85.66;99297.47;10207230;28;20074;-67
2023/11/12 01:29:47;;;;;;;5.20;4.70;;;;;;;7.36;85.46;99286.88;10209842;28;20890;-67
2023/11/12 01:34:51;;;;;;;4.97;4.50;;;;;;;7.34;86.03;99291.47;10208615;28;20050;-67
2023/11/12 01:39:52;;;;;;;5.05;4.55;;;;;;;7.34;86.27;99280.88;10208202;28;20096;-67
2023/11/12 01:44:54;;;;;;;5.70;4.35;;;;;;;7.47;86.04;99279.84;10208000;28;20055;-67
2023/11/12 01:49:56;;;;;;;4.93;4.43;;;;;;;7.53;85.77;99287.28;10210159;28;20047;-67
2023/11/12 01:54:58;;;;;;;5.65;5.03;;;;;;;7.53;85.53;99266.09;10207587;28;20202;-67
2023/11/12 02:00:01;;;;;;;4.75;4.35;;;;;;;7.54;85.68;99267.78;10210074;28;20055;-67
2023/11/12 02:05:06;;;;;;;6.82;4.97;;;;;;;7.54;85.39;99281.03;10199065;28;20599;-68
2023/11/12 02:10:09;;;;;;;;;;;;;;;7.55;85.62;99285.34;10209513;28;20693;-67
2023/11/12 02:15:14;;;;;;;6.45;4.90;;;;;;;7.47;85.69;99282.50;10208387;28;19922;-67
2023/11/12 02:20:16;;;;;;;5.63;5.20;;;;;;;7.35;86.73;99284.34;10209729;28;20993;-67
2023/11/12 02:25:18;;;;;;;5.85;5.28;;;;;;;7.30;87.22;99287.38;10208939;28;20669;-67
2023/11/12 02:30:19;;;;;;;6.43;5.57;;;;;;;7.38;87.14;99295.53;10210331;28;20050;-67
2023/11/12 02:35:21;;;;;;;6.32;5.72;;;;;;;7.39;87.03;99291.09;10204436;28;20059;-66
2023/11/12 02:40:22;;;;;;;7.53;6.75;;;;;;;7.34;87.54;99288.81;10209186;28;20188;-66
2023/11/12 02:45:25;;;;;;;9.30;7.20;;;;;;;7.40;87.11;99293.63;10204382;28;20047;-66
2023/11/12 02:50:30;;;;;;;7.60;5.97;;;;;;;7.51;86.89;99286.59;10209289;28;20055;-66
2023/11/12 02:55:33;;;;;;;6.65;5.97;;;;;;;7.62;86.50;99278.56;10209472;28;21055;-66
2023/11/12 03:00:36;;;;;;;6.72;6.07;;;;;;;7.58;85.81;99279.78;10204539;28;20149;-67
2023/11/12 03:05:38;;;;;;;6.63;6.03;;;;;;;7.57;86.14;99283.44;10200511;28;20066;-68
2023/11/12 03:10:42;;;;;;;6.68;6.07;;;;;;;7.65;85.45;99273.00;10189442;28;20153;-67
2023/11/12 03:15:44;;;;;;;7.73;6.50;;;;;;;7.60;84.96;99261.97;10214409;28;20062;-68
2023/11/12 03:20:46;;;;;;;5.68;5.18;;;;;;;7.66;84.79;99260.63;10220762;28;20623;-67
2023/11/12 03:25:48;;;;;;;6.15;4.97;;;;;;;7.66;84.31;99250.88;10213588;28;20087;-67
2023/11/12 03:30:52;;;;;;;5.47;4.88;;;;;;;7.64;83.74;99236.94;10206122;28;20070;-67
2023/11/12 03:35:55;;;;;;;5.40;4.90;;;;;;;7.61;84.20;99226.56;10209392;28;20055;-67
2023/11/12 03:40:57;;;;;;;6.50;5.05;;;;;;;7.61;83.83;99221.25;10210780;28;20055;-67
2023/11/12 03:45:58;;;;;;;6.78;5.78;;;;;;;7.69;84.13;99212.69;10217289;28;20188;-67
2023/11/12 03:51:00;;;;;;;6.90;6.00;;;;;;;7.69;84.22;99213.53;10210309;28;20055;-66
2023/11/12 03:56:02;;;;;;;7.97;6.50;;;;;;;7.66;84.56;99213.78;10201511;28;20066;-67
2023/11/12 04:01:04;;;;;;;7.38;6.22;;;;;;;7.70;84.39;99212.56;10202200;28;20139;-67
2023/11/12 04:06:06;;;;;;;7.60;6.53;;;;;;;7.72;84.50;99213.25;10202000;28;20131;-67
2023/11/12 04:11:08;;;;;;;6.90;5.72;;;;;;;7.71;84.14;99211.56;10201929;28;20098;-68
2023/11/12 04:16:10;;;;;;;6.10;5.50;;;;;;;7.76;84.55;99211.19;10196085;28;20077;-67
2023/11/12 04:21:11;;;;;;;9.48;6.43;;;;;;;7.78;83.93;99201.31;10198563;28;20205;-67
2023/11/12 04:26:14;;;;;;;7.45;6.05;;;;;;;7.81;84.18;99205.47;10198183;28;20576;-68
2023/11/12 04:31:16;;;;;;;7.00;6.38;;;;;;;7.70;83.77;99212.56;10205504;28;20654;-67
2023/11/12 04:36:19;;;;;;;7.72;6.32;;;;;;;7.71;84.16;99213.38;10205083;28;20564;-67
2023/11/12 04:41:20;;;;;;;7.85;5.70;;;;;;;7.72;84.37;99215.91;10200665;28;20078;-68
2023/11/12 04:46:22;;;;;;;8.32;6.70;;;;;;;7.57;84.56;99191.56;10202197;28;20083;-68
2023/11/12 04:51:24;;;;;;;7.60;6.60;;;;;;;7.72;84.55;99207.97;10195731;28;20058;-67
2023/11/12 04:56:26;;;;;;;8.80;6.82;;;;;;;7.81;84.71;99208.13;10194551;28;20059;-67
2023/11/12 05:01:27;;;;;;;7.65;6.95;;;;;;;7.79;84.07;99202.97;10202348;28;20051;-67
2023/11/12 05:06:29;;;;;;;7.72;6.60;;;;;;;7.74;84.61;99198.06;10195334;28;21091;-66
2023/11/12 05:11:31;;;;;;;8.55;6.40;;;;;;;7.85;84.82;99194.50;10205746;28;20565;-67
2023/11/12 05:16:32;;;;;;;10.05;6.88;;;;;;;7.95;83.64;99190.06;10199133;28;20121;-66
2023/11/12 05:21:34;;;;;;;7.30;5.45;;;;;;;8.03;83.64;99194.75;10199841;28;20055;-66
2023/11/12 05:26:36;;;;;;;6.43;5.82;;;;;;;8.10;83.17;99201.16;10183266;28;20142;-67
2023/11/12 05:31:37;;;;;;;7.57;6.00;;;;;;;8.13;82.77;99192.09;10195170;28;20378;-66
2023/11/12 05:36:41;;;;;;;7.50;6.22;;;;;;;8.18;82.65;99202.31;10188499;28;20697;-66
2023/11/12 05:41:43;;;;;;;6.88;5.97;;;;;;;8.11;82.27;99192.25;10186906;28;20055;-68
2023/11/12 05:46:48;;;;;;;19.58;15.02;;;;;;;8.12;81.94;99199.22;10187870;28;20702;-70
2023/11/12 05:51:49;;;;;;;7.68;6.93;;;;;;;8.05;82.47;99208.69;10180427;28;20068;-67
2023/11/12 05:56:50;;;;;;;7.70;5.97;;;;;;;7.99;82.95;99217.16;10214932;28;20735;-66
2023/11/12 06:01:52;;;;;;;7.90;6.32;;;;;;;8.11;82.94;99221.41;10202695;28;20519;-68
2023/11/12 06:06:53;;;;;;;7.20;6.25;;;;;;;8.16;82.60;99220.16;10208843;28;20086;-67
2023/11/12 06:11:55;;;;;;;7.88;6.45;;;;;;;8.16;81.85;99225.47;10204163;28;20161;-68
2023/11/12 06:16:57;;;;;;;7.45;6.10;;;;;;;8.07;82.89;99229.75;10217303;28;20086;-68
2023/11/12 06:22:01;;;;;;;7.57;6.20;;;;;;;8.18;82.52;99239.41;10206442;28;20067;-68
2023/11/12 06:27:03;;;;;;;7.80;6.90;;;;;;;8.26;81.99;99235.13;10206986;28;20185;-68
2023/11/12 06:32:06;;;;;;;7.47;6.07;;;;;;;8.29;81.95;99229.56;10206760;28;20705;-68
2023/11/12 06:37:07;;;;;;;6.25;5.65;;;;;;;8.26;81.71;99235.13;10206795;28;20058;-67
2023/11/12 06:42:09;;;;;;;6.45;5.45;;;;;;;8.23;81.38;99234.56;10209658;28;20047;-67
2023/11/12 06:47:10;;;;;;;7.60;6.72;;;;;;;8.33;81.31;99243.38;10206989;28;20093;-67
2023/11/12 06:52:11;;;;;;;9.00;6.68;;;;;;;8.37;81.09;99254.56;10204655;28;20260;-66
2023/11/12 06:57:14;;;;;;;8.93;6.72;;;;;;;8.41;81.14;99262.13;10203524;28;20612;-67
2023/11/12 07:02:16;;;;;;;7.80;6.90;;;;;;;8.40;80.77;99262.25;10203803;28;20050;-67
2023/11/12 07:07:17;;;;;;;8.70;6.93;;;;;;;8.48;80.86;99273.06;10208903;28;20124;-68
2023/11/12 07:12:19;;;;;;;7.97;7.18;;;;;;;8.46;80.82;99291.75;10207249;28;20051;-68
2023/11/12 07:17:20;;;;;;;7.72;6.93;;;;;;;8.43;80.38;99297.31;10204702;28;20149;-66
2023/11/12 07:22:23;;;;;;;9.65;7.28;;;;;;;8.45;80.61;99298.06;10199911;28;20126;-66
2023/11/12 07:27:24;;;;;;;8.35;7.07;;;;;;;8.35;80.25;99315.69;10207397;28;20059;-67
2023/11/12 07:32:28;;;;;;;7.43;6.63;;;;;;;8.43;81.11;99312.38;10208247;28;20135;-68
2023/11/12 07:37:31;;;;;;;8.18;6.97;;;;;;;8.47;80.31;99309.38;10219107;28;20074;-67
2023/11/12 07:42:33;;;;;;;8.10;7.30;;;;;;;8.53;80.05;99315.09;10217020;28;20051;-68
2023/11/12 07:47:35;;;;;;;8.35;7.53;;;;;;;8.62;80.10;99320.44;10197755;28;20055;-68
2023/11/12 07:52:41;;;;;;;9.15;6.80;;;;;;;8.64;80.39;99328.28;10212148;28;20055;-68
2023/11/12 07:57:43;;;;;;;8.95;7.07;;;;;;;8.67;80.04;99334.13;10198376;28;20056;-67
2023/11/12 08:02:47;;;;;;;10.18;7.38;;;;;;;8.58;79.98;99342.06;10201359;28;20557;-68
2023/11/12 08:07:50;;;;;;;9.38;7.55;;;;;;;8.50;80.23;99340.09;10196934;28;20061;-67
2023/11/12 08:12:52;;;;;;;8.93;6.18;;;;;;;8.54;79.98;99345.97;10207124;28;20093;-67
2023/11/12 08:17:54;;;;;;;7.93;7.05;;;;;;;8.52;79.90;99353.22;10196090;28;20042;-67
2023/11/12 08:22:55;;;;;;;8.68;7.68;;;;;;;8.48;79.73;99358.78;10205113;28;20047;-68
2023/11/12 08:27:57;;;;;;;8.18;6.20;;;;;;;8.36;79.37;99353.66;10209913;28;20061;-67
2023/11/12 08:32:58;;;;;;;8.45;7.38;;;;;;;8.23;80.33;99359.19;10203009;28;20122;-67
2023/11/12 08:38:02;;;;;;;9.55;7.13;;;;;;;8.22;81.11;99357.50;10198448;28;20436;-68
2023/11/12 08:43:05;;;;;;;8.70;6.97;;;;;;;8.28;81.33;99356.97;10215974;28;20046;-67
2023/11/12 08:48:08;;;;;;;10.32;7.38;;;;;;;8.25;81.25;99360.72;10218812;28;20059;-66
2023/11/12 08:53:10;;;;;;;8.25;7.13;;;;;;;8.26;82.09;99359.75;10207519;28;20062;-70
2023/11/12 08:58:12;;;;;;;10.90;8.95;;;;;;;8.34;81.71;99356.44;10201057;28;20150;-70
2023/11/12 09:03:14;;;;;;;8.82;7.93;;;;;;;8.41;82.62;99362.06;10202727;28;20055;-67
2023/11/12 09:08:16;;;;;;;9.88;8.13;;;;;;;8.43;81.89;99366.25;10200844;28;20055;-68
2023/11/12 09:13:18;;;;;;;12.02;9.20;;;;;;;8.35;81.48;99355.47;10192999;28;20063;-68
2023/11/12 09:18:20;;;;;;;9.50;8.52;;;;;;;8.35;82.29;99368.75;10195330;28;20134;-67
2023/11/12 09:23:22;;;;;;;11.52;9.05;;;;;;;8.43;82.26;99376.88;10205485;28;20055;-67
2023/11/12 09:28:24;;;;;;;10.35;8.50;;;;;;;8.52;82.53;99372.63;10208289;28;20057;-68
2023/11/12 09:33:26;;;;;;;13.05;10.02;;;;;;;8.51;81.65;99367.44;10196451;28;20528;-67
2023/11/12 09:38:29;;;;;;;10.45;8.63;;;;;;;8.52;82.04;99374.44;10208678;28;20062;-68
2023/11/12 09:43:33;;;;;;;11.60;10.27;;;;;;;8.51;82.04;99378.06;10207420;28;20199;-68
2023/11/12 09:48:35;;;;;;;10.77;8.77;;;;;;;8.58;81.76;99384.53;10220356;28;20063;-69
2023/11/12 09:53:42;;;;;;;10.30;7.63;;;;;;;8.61;81.57;99366.50;10220948;28;20055;-68
2023/11/12 09:58:52;;;;;;;10.63;9.10;;;;;;;8.63;80.50;99366.38;10222794;28;20043;-68
2023/11/12 10:03:54;;;;;;;10.77;8.63;;;;;;;8.75;80.53;99368.00;10215289;28;20609;-69
2023/11/12 10:08:56;;;;;;;10.98;8.00;;;;;;;8.91;81.07;99354.19;10220390;28;20505;-68
2023/11/12 10:13:57;;;;;;;9.73;8.48;;;;;;;8.99;80.11;99350.88;10214008;28;20060;-68
2023/11/12 10:19:13;;;;;;;9.77;8.73;;;;;;;8.89;79.89;99342.91;10203604;28;20480;-68
2023/11/12 10:24:17;;;;;;;9.68;8.48;;;;;;;8.91;80.18;99353.38;10203864;28;20178;-69
2023/11/12 10:29:22;;;;;;;8.90;7.23;;;;;;;8.90;79.84;99351.69;10207771;28;20221;-68
2023/11/12 10:34:26;;;;;;;9.63;7.65;;;;;;;8.90;79.76;99352.50;10204686;28;20588;-69
2023/11/12 10:39:43;;;;;;;12.27;9.73;;;;;;;8.88;80.06;99353.66;10208413;28;20151;-67
2023/11/12 10:44:46;;;;;;;10.20;9.20;;;;;;;8.93;80.24;99351.41;10212465;28;20116;-68
2023/11/12 10:49:48;;;;;;;11.50;9.68;;;;;;;8.98;80.52;99360.66;10200458;28;20055;-68
2023/11/12 10:54:53;;;;;;;12.85;9.10;;;;;;;9.05;80.02;99360.13;10211115;28;20057;-69
2023/11/12 10:59:55;;;;;;;12.73;9.45;;;;;;;9.07;79.68;99343.09;10205846;28;20055;-67
2023/11/12 11:04:58;;;;;;;12.48;9.77;;;;;;;9.14;79.98;99338.91;10197074;28;20062;-68
2023/11/12 11:10:01;;;;;;;11.88;8.93;;;;;;;9.11;79.04;99333.03;10212631;28;20051;-68
2023/11/12 11:15:38;;;;;;;10.07;8.48;;;;;;;9.17;79.96;99332.47;10200302;28;20051;-68
2023/11/12 11:21:06;;;;;;;12.02;8.13;;;;;;;9.28;79.12;99332.34;10206862;28;20062;-67
2023/11/12 11:26:28;;;;;;;9.70;8.05;;;;;;;9.30;79.00;99333.06;10216352;28;20043;-68
2023/11/12 11:31:32;;;;;;;11.00;8.83;;;;;;;9.33;78.48;99321.31;10204182;28;20057;-68
2023/11/12 11:36:34;;;;;;;9.32;7.45;;;;;;;9.41;79.14;99324.09;10200857;28;20064;-69
2023/11/12 11:41:58;;;;;;;9.27;7.20;;;;;;;9.46;78.42;99327.22;10205494;28;20055;-68
2023/11/12 11:47:10;;;;;;;9.93;7.88;;;;;;;9.50;78.13;99318.00;10209099;28;20138;-69
2023/11/12 11:52:24;;;;;;;10.05;7.68;;;;;;;9.47;77.62;99312.97;10197832;28;20052;-69
2023/11/12 11:57:26;;;;;;;11.13;7.47;;;;;;;9.48;77.58;99319.09;10213530;28;20058;-68
2023/11/12 12:02:41;;;;;;;9.13;6.97;;;;;;;9.56;77.76;99313.91;10200478;28;20600;-67
2023/11/12 12:07:45;;;;;;;9.27;6.67;;;;;;;9.55;77.69;99313.09;10179380;28;20573;-67
2023/11/12 12:12:48;;;;;;;7.60;6.80;;;;;;;9.61;78.17;99318.81;10201750;28;20755;-67
2023/11/12 12:17:49;;;;;;;8.82;7.30;;;;;;;9.68;78.22;99318.13;10198631;28;20065;-68
2023/11/12 12:22:52;;;;;;;9.23;7.57;;;;;;;9.96;77.41;99322.72;10200169;28;20065;-68
2023/11/12 12:27:54;;;;;;;8.68;7.72;;;;;;;10.23;75.23;99320.13;10203405;28;20399;-68
2023/11/12 12:32:57;;;;;;;10.00;8.07;;;;;;;10.42;74.26;99324.56;10202386;28;20539;-67
2023/11/12 12:38:06;;;;;;;9.70;7.35;;;;;;;10.63;73.38;99315.53;10202239;28;20088;-67
2023/11/12 12:43:10;;;;;;;10.65;7.50;;;;;;;11.71;68.71;99329.00;10201040;28;20207;-70
2023/11/12 12:48:12;;;;;;;8.98;7.40;;;;;;;12.29;65.93;99319.63;10188812;28;20064;-68
2023/11/12 12:53:17;;;;;;;9.93;8.00;;;;;;;12.18;66.39;99323.38;10209696;28;20053;-69
2023/11/12 12:58:22;;;;;;;7.07;6.47;;;;;;;11.58;68.04;99320.56;10215231;28;20146;-68
2023/11/12 13:03:28;;;;;;;7.93;6.90;;;;;;;12.30;66.35;99313.28;10224576;28;20152;-69
2023/11/12 13:08:33;;;;;;;9.02;6.72;;;;;;;11.96;66.69;99323.91;10206264;28;20125;-68
2023/11/12 13:13:36;;;;;;;8.68;6.60;;;;;;;11.29;68.23;99327.78;10199881;28;20137;-68
2023/11/12 13:18:40;;;;;;;8.10;6.53;;;;;;;10.95;70.24;99315.09;10201906;28;20070;-69
2023/11/12 13:23:42;;;;;;;10.85;7.60;;;;;;;10.87;71.79;99312.34;10216361;28;20059;-68
2023/11/12 13:28:45;;;;;;;10.32;6.75;;;;;;;10.48;72.66;99315.19;10208445;28;21049;-69
2023/11/12 13:33:48;;;;;;;9.32;7.60;;;;;;;10.85;72.41;99316.13;10212038;28;20122;-69
2023/11/12 13:38:52;;;;;;;9.73;7.53;;;;;;;11.11;70.88;99314.44;10206597;28;20118;-68
2023/11/12 13:43:54;;;;;;;11.05;9.95;;;;;;;11.05;70.76;99311.53;10205095;28;20142;-68
2023/11/12 13:48:55;;;;;;;10.18;7.80;;;;;;;10.98;71.93;99313.13;10206381;28;20146;-70
2023/11/12 13:54:04;;;;;;;10.35;9.27;;;;;;;10.85;72.22;99301.00;10207237;28;20047;-69
2023/11/12 13:59:09;;;;;;;11.32;8.57;;;;;;;10.79;72.36;99305.09;10206884;28;20732;-68
2023/11/12 14:04:13;;;;;;;9.98;8.45;;;;;;;10.75;73.23;99302.88;10209024;28;20097;-69
2023/11/12 14:09:17;;;;;;;9.85;8.15;;;;;;;10.75;73.09;99308.22;10203459;28;20074;-69
2023/11/12 14:14:20;;;;;;;11.13;8.88;;;;;;;10.74;72.96;99317.16;10209481;28;20482;-69
2023/11/12 14:19:24;;;;;;;11.82;8.35;;;;;;;10.72;73.42;99313.81;10206981;28;20051;-68
2023/11/12 14:24:26;;;;;;;10.60;7.67;;;;;;;10.71;73.47;99307.66;10206511;28;20059;-68
2023/11/12 14:29:27;;;;;;;11.82;9.10;;;;;;;10.62;74.03;99308.53;10208832;28;20066;-69
2023/11/12 14:34:30;;;;;;;12.80;9.38;;;;;;;10.59;74.71;99314.97;10211764;28;20113;-68
2023/11/12 14:39:31;;;;;;;9.98;8.95;;;;;;;10.53;74.71;99315.56;10206146;28;20066;-68
2023/11/12 14:44:35;;;;;;;9.90;8.43;;;;;;;10.46;74.89;99319.78;10222106;28;20051;-69
2023/11/12 14:49:37;;;;;;;10.68;9.20;;;;;;;10.45;74.47;99318.13;10214968;28;20066;-68
2023/11/12 14:54:41;;;;;;;14.52;9.02;;;;;;;10.33;74.89;99313.94;10206822;28;20055;-68
2023/11/12 14:59:44;;;;;;;11.57;9.50;;;;;;;10.31;75.44;99329.19;10207286;28;20582;-68
2023/11/12 15:04:45;;;;;;;10.30;8.77;;;;;;;10.27;75.85;99329.50;10191651;28;20110;-69
2023/11/12 15:09:48;;;;;;;13.25;10.00;;;;;;;10.26;75.60;99332.28;10205141;28;20055;-69
2023/11/12 15:14:51;;;;;;;11.27;9.32;;;;;;;10.21;75.10;99343.38;10201338;28;20062;-68
2023/11/12 15:19:52;;;;;;;11.90;9.10;;;;;;;10.21;75.76;99353.19;10204894;28;20190;-68
2023/11/12 15:24:55;;;;;;;12.77;9.32;;;;;;;10.13;75.49;99345.88;10207659;28;20062;-67
2023/11/12 15:29:57;;;;;;;14.73;10.10;;;;;;;10.11;75.91;99363.00;10204759;28;20091;-67
2023/11/12 15:34:58;;;;;;;10.32;9.23;;;;;;;10.10;76.39;99356.81;10207389;28;20181;-67
2023/11/12 15:40:10;;;;;;;12.30;8.98;;;;;;;10.11;76.45;99361.16;10205669;28;20549;-66
2023/11/12 15:45:13;;;;;;;11.52;9.05;;;;;;;10.08;76.56;99356.13;10213834;28;20138;-66
2023/11/12 15:50:16;;;;;;;10.65;9.35;;;;;;;10.06;76.79;99355.44;10208461;28;20215;-67
2023/11/12 15:55:18;;;;;;;13.85;9.98;;;;;;;10.01;77.10;99363.00;10206516;28;20910;-66
2023/11/12 16:00:20;;;;;;;10.60;9.13;;;;;;;9.99;77.12;99364.97;10200048;28;20153;-66
2023/11/12 16:05:22;;;;;;;11.15;8.93;;;;;;;9.98;77.05;99369.41;10207839;28;20055;-67
2023/11/12 16:10:23;;;;;;;10.93;8.57;;;;;;;9.96;77.54;99359.94;10203527;28;20082;-67
2023/11/12 16:15:28;;;;;;;11.38;8.50;;;;;;;9.97;77.30;99364.25;10203701;28;20105;-69
2023/11/12 16:20:29;;;;;;;12.43;9.15;;;;;;;9.96;76.93;99371.38;10213763;28;20060;-65
2023/11/12 16:25:32;;;;;;;12.30;8.82;;;;;;;9.95;77.13;99377.69;10209508;28;20047;-67
2023/11/12 16:30:34;;;;;;;10.32;8.27;;;;;;;9.90;77.04;99385.25;10178702;28;24506;-69
2023/11/12 16:35:36;;;;;;;11.60;8.90;;;;;;;9.91;77.21;99390.44;10202544;28;20059;-69
2023/11/12 16:40:42;;;;;;;11.85;8.38;;;;;;;9.91;77.03;99395.75;10200561;28;20062;-68
2023/11/12 16:45:43;;;;;;;12.32;9.20;;;;;;;9.87;77.11;99401.47;10196209;28;20091;-68
2023/11/12 16:50:45;;;;;;;14.88;9.88;;;;;;;9.93;77.42;99408.06;10206594;28;20058;-69
2023/11/12 16:55:47;;;;;;;13.45;9.45;;;;;;;9.93;76.83;99416.88;10200654;28;20148;-68
2023/11/12 17:00:51;;;;;;;12.45;10.02;;;;;;;9.86;76.50;99411.28;10197657;28;20051;-68
2023/11/12 17:05:56;;;;;;;13.35;9.35;;;;;;;9.87;76.76;99415.59;10201650;28;20048;-68
2023/11/12 17:10:57;;;;;;;12.85;9.15;;;;;;;9.90;76.36;99415.31;10218268;28;20061;-68
2023/11/12 17:15:58;;;;;;;13.95;10.93;;;;;;;9.90;76.57;99404.69;10220556;28;20066;-68
2023/11/12 17:21:00;;;;;;;13.57;12.18;;;;;;;9.89;76.39;99416.31;10206532;28;20075;-68
2023/11/12 17:26:04;;;;;;;13.10;11.48;;;;;;;9.88;76.53;99417.28;10194295;28;20047;-67
2023/11/12 17:31:05;;;;;;;11.00;9.52;;;;;;;9.87;76.79;99420.91;10196655;28;20044;-66
2023/11/12 17:36:08;;;;;;;14.13;12.63;;;;;;;9.89;76.75;99434.06;10194288;28;20054;-68
2023/11/12 17:41:10;;;;;;;12.07;10.82;;;;;;;9.86;76.52;99437.88;10217916;28;20047;-68
2023/11/12 17:46:11;;;;;;;40.88;36.50;;;;;;;9.83;76.91;99435.50;10195669;28;20826;-67
2023/11/12 17:51:14;;;;;;;15.77;13.98;;;;;;;9.85;77.29;99449.47;10192069;28;20054;-67
2023/11/12 17:56:16;;;;;;;17.63;14.07;;;;;;;9.83;77.27;99440.81;10205553;28;20053;-67
2023/11/12 18:01:18;;;;;;;18.85;15.93;;;;;;;9.81;76.70;99448.06;10213490;28;20055;-66
2023/11/12 18:06:20;;;;;;;25.83;18.17;;;;;;;9.77;77.39;99451.97;10206194;28;20599;-68
2023/11/12 18:11:21;;;;;;;16.08;14.10;;;;;;;9.80;78.01;99443.72;10209283;28;21244;-67
2023/11/12 18:16:23;;;;;;;14.05;12.23;;;;;;;9.81;77.92;99448.06;10205187;28;20055;-67
2023/11/12 18:21:28;;;;;;;14.50;12.68;;;;;;;9.79;78.24;99455.34;10212188;28;20067;-66
2023/11/12 18:26:29;;;;;;;16.88;12.38;;;;;;;9.78;78.08;99450.16;10204787;28;20398;-67
2023/11/12 18:31:31;;;;;;;57.65;38.40;;;;;;;9.75;77.84;99448.63;10214599;28;20055;-66
2023/11/12 18:36:33;;;;;;;28.05;21.60;;;;;;;9.75;77.88;99450.44;10209092;28;20063;-68
2023/11/12 18:41:36;;;;;;;19.35;14.90;;;;;;;9.67;78.36;99472.41;10204308;28;20051;-68
2023/11/12 18:46:42;;;;;;;21.42;16.70;;;;;;;9.71;78.96;99474.63;10181892;28;20044;-67
2023/11/12 18:51:44;;;;;;;18.35;14.23;;;;;;;9.71;78.74;99471.13;10206458;28;20142;-64
2023/11/12 18:56:46;;;;;;;21.25;15.52;;;;;;;9.67;78.92;99488.34;10205679;28;20059;-67
2023/11/12 19:01:48;;;;;;;16.85;13.02;;;;;;;9.68;78.88;99497.97;10208244;28;20519;-67
2023/11/12 19:06:50;;;;;;;13.88;12.27;;;;;;;9.65;79.00;99501.75;10205949;28;20126;-67
2023/11/12 19:11:52;;;;;;;15.85;13.27;;;;;;;9.67;79.60;99505.09;10203933;28;20067;-65
2023/11/12 19:16:54;;;;;;;14.55;12.45;;;;;;;9.62;79.83;99491.38;10205660;28;20074;-67
2023/11/12 19:21:59;;;;;;;16.20;14.35;;;;;;;9.50;79.99;99472.06;10206662;28;20925;-67
2023/11/12 19:27:02;;;;;;;13.98;12.48;;;;;;;9.50;80.32;99485.34;10209206;28;20062;-67
2023/11/12 19:32:04;;;;;;;15.85;12.43;;;;;;;9.49;80.25;99481.00;10187448;28;20117;-68
2023/11/12 19:37:08;;;;;;;19.55;13.63;;;;;;;9.48;80.25;99495.25;10195853;28;20547;-67
2023/11/12 19:42:13;;;;;;;13.48;12.07;;;;;;;9.50;80.38;99487.16;10213707;28;20050;-67
2023/11/12 19:47:16;;;;;;;13.70;11.18;;;;;;;9.49;79.92;99502.25;10212576;28;20091;-68
2023/11/12 19:52:20;;;;;;;11.35;9.43;;;;;;;9.42;78.67;99511.75;10209111;28;20134;-68
2023/11/12 19:57:22;;;;;;;10.70;8.50;;;;;;;9.37;78.78;99525.44;10171641;28;20043;-68
2023/11/12 20:02:23;;;;;;;8.57;6.80;;;;;;;9.32;77.99;99530.31;10187148;28;20063;-66
2023/11/12 20:07:27;;;;;;;5.30;4.80;;;;;;;9.20;78.74;99532.22;10206069;28;20608;-67
2023/11/12 20:12:30;;;;;;;7.80;5.93;;;;;;;9.08;79.56;99525.28;10192122;28;20062;-67
2023/11/12 20:17:34;;;;;;;7.10;5.90;;;;;;;9.09;82.91;99524.31;10205663;28;20061;-67
2023/11/12 20:22:36;;;;;;;8.00;6.50;;;;;;;9.07;82.54;99518.31;10216424;28;20055;-67
2023/11/12 20:27:39;;;;;;;10.73;7.20;;;;;;;9.15;82.04;99505.19;10211566;28;20092;-68
2023/11/12 20:32:42;;;;;;;9.50;7.32;;;;;;;9.06;82.18;99494.53;10205628;28;20126;-68
2023/11/12 20:37:44;;;;;;;6.93;5.82;;;;;;;9.01;82.17;99495.78;10229719;28;20149;-67
2023/11/12 20:42:45;;;;;;;9.82;6.53;;;;;;;8.99;82.70;99532.25;10218509;28;20763;-67
2023/11/12 20:47:51;;;;;;;8.60;7.28;;;;;;;9.06;82.31;99529.06;10217236;28;20825;-70
2023/11/12 20:52:54;;;;;;;8.65;6.32;;;;;;;9.06;82.67;99553.78;10189313;28;20062;-67
2023/11/12 20:57:58;;;;;;;7.85;6.00;;;;;;;9.10;82.71;99568.47;10188194;28;20189;-67
2023/11/12 21:03:01;;;;;;;7.82;6.00;;;;;;;9.07;81.93;99560.78;10187859;28;20059;-67
2023/11/12 21:08:03;;;;;;;7.57;6.00;;;;;;;9.08;81.35;99561.63;10186186;28;20098;-68
2023/11/12 21:13:05;;;;;;;5.45;4.30;;;;;;;8.94;81.32;99557.47;10207439;28;20589;-68
2023/11/12 21:18:11;;;;;;;7.97;4.85;;;;;;;8.83;82.00;99556.56;10204701;28;20636;-69
2023/11/12 21:23:13;;;;;;;5.95;4.95;;;;;;;8.91;82.17;99560.41;10206003;28;20051;-68
2023/11/12 21:28:15;;;;;;;8.43;5.47;;;;;;;8.96;82.47;99552.88;10208372;28;20065;-67
2023/11/12 21:33:18;;;;;;;6.57;5.55;;;;;;;8.94;82.26;99538.91;10209134;28;20178;-67
2023/11/12 21:38:20;;;;;;;5.82;4.93;;;;;;;8.90;82.95;99558.72;10212143;28;20057;-66
2023/11/12 21:43:22;;;;;;;7.65;5.57;;;;;;;8.88;83.45;99561.50;10223415;28;20047;-66
2023/11/12 21:48:26;;;;;;;6.22;5.43;;;;;;;8.90;83.40;99558.72;10211494;28;20971;-67
2023/11/12 21:53:27;;;;;;;9.67;6.73;;;;;;;8.89;83.74;99555.22;10222511;28;20429;-67
2023/11/12 21:58:30;;;;;;;8.50;6.15;;;;;;;8.87;84.13;99554.50;10208810;28;20058;-68
2023/11/12 22:03:36;;;;;;;7.35;6.60;;;;;;;8.84;84.48;99566.22;10207458;28;20661;-68
2023/11/12 22:08:40;;;;;;;8.00;6.38;;;;;;;8.82;84.87;99565.50;10207916;28;20059;-68
2023/11/12 22:13:43;;;;;;;7.20;6.40;;;;;;;8.83;85.12;99553.91;10211645;28;20058;-68
2023/11/12 22:18:46;;;;;;;7.60;6.80;;;;;;;8.79;84.92;99544.53;10216707;28;20137;-67
2023/11/12 22:23:48;;;;;;;7.15;6.45;;;;;;;8.92;84.81;99556.78;10206629;28;20051;-68
2023/11/12 22:28:51;;;;;;;7.00;6.30;;;;;;;8.83;85.10;99564.53;10229853;28;20058;-67
2023/11/12 22:33:54;;;;;;;7.05;6.35;;;;;;;8.81;85.03;99544.41;10207805;28;20050;-66
2023/11/12 22:38:55;;;;;;;8.68;6.15;;;;;;;8.84;85.68;99542.34;10205755;28;20051;-66
2023/11/12 22:43:58;;;;;;;6.60;5.68;;;;;;;8.85;85.96;99562.59;10198252;28;20065;-66
2023/11/12 22:49:01;;;;;;;7.57;6.38;;;;;;;8.84;86.28;99562.72;10209525;28;20055;-68
2023/11/12 22:54:04;;;;;;;6.70;6.10;;;;;;;8.82;86.46;99591.22;10202534;28;20047;-67
2023/11/12 22:59:05;;;;;;;8.35;6.63;;;;;;;8.84;86.86;99598.06;10203824;28;20649;-67
2023/11/12 23:04:09;;;;;;;8.63;6.75;;;;;;;8.75;87.22;99613.91;10201170;28;20051;-67
2023/11/12 23:09:11;;;;;;;8.57;6.57;;;;;;;8.72;87.60;99609.72;10203179;28;20059;-67
2023/11/12 23:14:12;;;;;;;7.97;7.10;;;;;;;8.64;87.91;99617.47;10209058;28;20130;-66
2023/11/12 23:19:14;;;;;;;8.80;6.80;;;;;;;8.63;88.27;99595.41;10205066;28;21068;-67
2023/11/12 23:24:17;;;;;;;6.90;5.75;;;;;;;8.73;87.14;99611.38;10199832;28;20059;-67
2023/11/12 23:29:19;;;;;;;6.32;5.70;;;;;;;8.62;86.63;99606.16;10205540;28;20059;-66
2023/11/12 23:34:20;;;;;;;7.50;5.85;;;;;;;8.59;86.73;99614.34;10204631;28;20625;-67
2023/11/12 23:39:23;;;;;;;8.25;6.22;;;;;;;8.73;87.02;99600.78;10199857;28;20070;-67